Time,TemperatureF,DewpointF,PressureIn,WindDirection,WindDirectionDegrees,WindSpeedMPH,WindSpeedGustMPH,Humidity,HourlyPrecipIn,Conditions,Clouds,dailyrainin,SoftwareType,DateUTC
2013-02-18 00:02:00,6.0,2.0,-100.00,SW,225,0.0,0.0,83,-99.99,,,-99.99,,2013-02-18 05:02:00,
2013-02-18 00:11:00,6.0,2.0,-100.00,SW,225,0.0,0.0,83,-99.99,,,-99.99,,2013-02-18 05:11:00,
2013-02-18 00:21:00,6.0,2.0,-100.00,SW,225,0.0,0.0,84,-99.99,,,-99.99,,2013-02-18 05:21:00,
2013-02-18 00:32:00,6.0,2.0,-100.00,SW,225,0.0,0.0,84,-99.99,,,-99.99,,2013-02-18 05:32:00,
2013-02-18 00:42:00,5.0,2.0,-100.00,SW,225,0.0,0.0,84,-99.99,,,-99.99,,2013-02-18 05:42:00,
2013-02-18 00:52:00,5.0,2.0,-100.00,SW,225,0.0,0.0,84,-99.99,,,-99.99,,2013-02-18 05:52:00,
2013-02-18 01:02:00,5.0,2.0,-100.00,SW,225,0.0,1.0,85,-99.99,,,-99.99,,2013-02-18 06:02:00,
2013-02-18 01:11:00,5.0,1.0,-100.00,SW,225,0.0,0.0,85,-99.99,,,-99.99,,2013-02-18 06:11:00,
2013-02-18 01:21:00,5.0,1.0,-100.00,SW,225,0.0,0.0,85,-99.99,,,-99.99,,2013-02-18 06:21:00,
2013-02-18 01:32:00,4.0,1.0,-100.00,SW,225,0.0,0.0,85,-99.99,,,-99.99,,2013-02-18 06:32:00,
2013-02-18 01:42:00,4.0,1.0,-100.00,SW,225,0.0,0.0,86,-99.99,,,-99.99,,2013-02-18 06:42:00,
2013-02-18 01:51:00,4.0,1.0,-100.00,SW,225,0.0,0.0,86,-99.99,,,-99.99,,2013-02-18 06:51:00,
2013-02-18 02:02:00,4.0,0.0,-100.00,SW,225,0.0,0.0,86,-99.99,,,-99.99,,2013-02-18 07:02:00,
2013-02-18 02:11:00,4.0,0.0,-100.00,SW,225,0.0,0.0,86,-99.99,,,-99.99,,2013-02-18 07:11:00,
2013-02-18 02:22:00,3.0,0.0,-100.00,SW,225,0.0,0.0,86,-99.99,,,-99.99,,2013-02-18 07:22:00,
2013-02-18 02:32:00,3.0,0.0,-100.00,SW,225,0.0,0.0,86,-99.99,,,-99.99,,2013-02-18 07:32:00,
2013-02-18 02:42:00,3.0,0.0,-100.00,SW,225,0.0,0.0,86,-99.99,,,-99.99,,2013-02-18 07:42:00,
2013-02-18 02:51:00,2.0,0.0,-100.00,SW,225,0.0,0.0,86,-99.99,,,-99.99,,2013-02-18 07:51:00,
2013-02-18 03:01:00,2.0,0.0,-100.00,SW,225,0.0,0.0,87,-99.99,,,-99.99,,2013-02-18 08:01:00,
2013-02-18 03:11:00,2.0,-1.0,-100.00,SW,225,0.0,0.0,87,-99.99,,,-99.99,,2013-02-18 08:11:00,
2013-02-18 03:21:00,2.0,-1.0,-100.00,SW,225,0.0,0.0,87,-99.99,,,-99.99,,2013-02-18 08:21:00,
2013-02-18 03:32:00,2.0,-1.0,-100.00,SW,225,0.0,0.0,87,-99.99,,,-99.99,,2013-02-18 08:32:00,
2013-02-18 03:42:00,2.0,-1.0,-100.00,SW,230,0.0,0.0,87,-99.99,,,-99.99,,2013-02-18 08:42:00,
2013-02-18 03:52:00,2.0,-1.0,-100.00,SW,220,0.0,0.0,87,-99.99,,,-99.99,,2013-02-18 08:52:00,
2013-02-18 04:03:00,2.0,-1.0,-100.00,SW,220,0.0,0.0,87,-99.99,,,-99.99,,2013-02-18 09:03:00,
2013-02-18 04:22:00,2.0,-1.0,-100.00,SW,220,0.0,0.0,87,-99.99,,,-99.99,,2013-02-18 09:22:00,
2013-02-18 04:32:00,2.0,-1.0,-100.00,SW,220,0.0,0.0,87,-99.99,,,-99.99,,2013-02-18 09:32:00,
2013-02-18 04:42:00,2.0,-1.0,-100.00,SW,220,0.0,0.0,87,-99.99,,,-99.99,,2013-02-18 09:42:00,
2013-02-18 04:52:00,2.0,-1.0,-100.00,SW,220,0.0,0.0,87,-99.99,,,-99.99,,2013-02-18 09:52:00,
2013-02-18 05:01:00,2.0,-1.0,-100.00,SW,220,0.0,0.0,87,-99.99,,,-99.99,,2013-02-18 10:01:00,
2013-02-18 05:11:00,2.0,-1.0,-100.00,SW,220,0.0,0.0,87,-99.99,,,-99.99,,2013-02-18 10:11:00,
2013-02-18 05:21:00,1.0,-1.0,-100.00,SW,225,0.0,0.0,87,-99.99,,,-99.99,,2013-02-18 10:21:00,
2013-02-18 05:32:00,2.0,-1.0,-100.00,SW,225,0.0,0.0,87,-99.99,,,-99.99,,2013-02-18 10:32:00,
2013-02-18 05:42:00,1.0,-1.0,-100.00,SW,220,0.0,0.0,87,-99.99,,,-99.99,,2013-02-18 10:42:00,
2013-02-18 05:52:00,1.0,-1.0,-100.00,SW,220,0.0,0.0,87,-99.99,,,-99.99,,2013-02-18 10:52:00,
2013-02-18 06:02:00,1.0,-1.0,-100.00,SW,220,0.0,0.0,87,-99.99,,,-99.99,,2013-02-18 11:02:00,
2013-02-18 06:11:00,1.0,-2.0,-100.00,West,260,0.0,0.0,87,-99.99,,,-99.99,,2013-02-18 11:11:00,
2013-02-18 06:22:00,1.0,-2.0,-100.00,WSW,255,0.0,0.0,87,-99.99,,,-99.99,,2013-02-18 11:22:00,
2013-02-18 06:32:00,1.0,-1.0,-100.00,WSW,255,0.0,0.0,87,-99.99,,,-99.99,,2013-02-18 11:32:00,
2013-02-18 06:42:00,1.0,-1.0,-100.00,WSW,255,0.0,0.0,87,-99.99,,,-99.99,,2013-02-18 11:42:00,
2013-02-18 06:52:00,1.0,-1.0,-100.00,WSW,250,0.0,0.0,87,-99.99,,,-99.99,,2013-02-18 11:52:00,
2013-02-18 07:02:00,2.0,-1.0,-100.00,WSW,250,0.0,0.0,87,-99.99,,,-99.99,,2013-02-18 12:02:00,
2013-02-18 07:11:00,2.0,-1.0,-100.00,WSW,250,0.0,0.0,87,-99.99,,,-99.99,,2013-02-18 12:11:00,
2013-02-18 07:22:00,2.0,-1.0,-100.00,WNW,300,0.0,0.0,87,-99.99,,,-99.99,,2013-02-18 12:22:00,
2013-02-18 07:32:00,2.0,-1.0,-100.00,West,270,0.0,0.0,87,-99.99,,,-99.99,,2013-02-18 12:32:00,
2013-02-18 07:42:00,2.0,0.0,-100.00,West,260,0.0,0.0,87,-99.99,,,-99.99,,2013-02-18 12:42:00,
2013-02-18 07:52:00,2.0,0.0,-100.00,WSW,250,0.0,0.0,87,-99.99,,,-99.99,,2013-02-18 12:52:00,
2013-02-18 08:03:00,3.0,0.0,-100.00,WSW,250,0.0,0.0,87,-99.99,,,-99.99,,2013-02-18 13:03:00,
2013-02-18 08:12:00,4.0,1.0,-100.00,WSW,240,0.0,1.0,87,-99.99,,,-99.99,,2013-02-18 13:12:00,
2013-02-18 08:22:00,5.0,2.0,-100.00,South,180,0.0,2.0,87,-99.99,,,-99.99,,2013-02-18 13:22:00,
2013-02-18 08:32:00,8.0,5.0,-100.00,South,190,0.0,2.0,87,-99.99,,,-99.99,,2013-02-18 13:32:00,
2013-02-18 08:42:00,9.0,6.0,-100.00,SSE,165,0.0,1.0,87,-99.99,,,-99.99,,2013-02-18 13:42:00,
2013-02-18 08:53:00,11.0,8.0,-100.00,SSW,195,0.0,3.0,87,-99.99,,,-99.99,,2013-02-18 13:53:00,
2013-02-18 09:02:00,15.0,12.0,-100.00,ENE,60,3.0,6.0,87,-99.99,,,-99.99,,2013-02-18 14:02:00,
2013-02-18 09:11:00,17.0,14.0,-100.00,East,100,4.0,7.0,84,-99.99,,,-99.99,,2013-02-18 14:11:00,
2013-02-18 09:22:00,19.0,14.0,-100.00,East,100,2.0,9.0,78,-99.99,,,-99.99,,2013-02-18 14:22:00,
2013-02-18 09:33:00,20.0,13.0,-100.00,SE,125,3.0,10.0,72,-99.99,,,-99.99,,2013-02-18 14:33:00,
2013-02-18 09:42:00,21.0,12.0,-100.00,SE,130,4.0,12.0,66,-99.99,,,-99.99,,2013-02-18 14:42:00,
2013-02-18 09:53:00,22.0,11.0,-100.00,East,100,6.0,10.0,60,-99.99,,,-99.99,,2013-02-18 14:53:00,
2013-02-18 10:02:00,22.0,10.0,-100.00,SSE,160,4.0,10.0,57,-99.99,,,-99.99,,2013-02-18 15:02:00,
2013-02-18 10:11:00,23.0,10.0,-100.00,East,95,4.0,12.0,55,-99.99,,,-99.99,,2013-02-18 15:11:00,
2013-02-18 10:22:00,24.0,9.0,-100.00,ESE,105,7.0,14.0,53,-99.99,,,-99.99,,2013-02-18 15:22:00,
2013-02-18 10:32:00,25.0,9.0,-100.00,SE,145,4.0,16.0,52,-99.99,,,-99.99,,2013-02-18 15:32:00,
2013-02-18 10:42:00,25.0,9.0,-100.00,ESE,120,7.0,13.0,50,-99.99,,,-99.99,,2013-02-18 15:42:00,
2013-02-18 10:52:00,26.0,10.0,-100.00,ESE,115,5.0,13.0,48,-99.99,,,-99.99,,2013-02-18 15:52:00,
2013-02-18 11:03:00,27.0,10.0,-100.00,ESE,115,7.0,13.0,47,-99.99,,,-99.99,,2013-02-18 16:03:00,
2013-02-18 11:12:00,27.0,9.0,-100.00,East,90,11.0,16.0,45,-99.99,,,-99.99,,2013-02-18 16:12:00,
2013-02-18 11:22:00,28.0,9.0,-100.00,SE,130,9.0,17.0,45,-99.99,,,-99.99,,2013-02-18 16:22:00,
2013-02-18 11:32:00,29.0,10.0,-100.00,ESE,105,8.0,18.0,44,-99.99,,,-99.99,,2013-02-18 16:32:00,
2013-02-18 11:42:00,29.0,10.0,-100.00,ESE,105,12.0,18.0,43,-99.99,,,-99.99,,2013-02-18 16:42:00,
2013-02-18 11:52:00,31.0,11.0,-100.00,ESE,120,6.0,18.0,42,-99.99,,,-99.99,,2013-02-18 16:52:00,
2013-02-18 12:04:00,30.0,10.0,-100.00,East,100,11.0,16.0,42,-99.99,,,-99.99,,2013-02-18 17:04:00,
2013-02-18 12:12:00,31.0,11.0,-100.00,ESE,105,7.0,16.0,41,-99.99,,,-99.99,,2013-02-18 17:12:00,
2013-02-18 12:22:00,33.0,11.0,-100.00,ESE,110,6.0,19.0,40,-99.99,,,-99.99,,2013-02-18 17:22:00,
2013-02-18 12:33:00,33.0,11.0,-100.00,East,90,9.0,15.0,40,-99.99,,,-99.99,,2013-02-18 17:33:00,
2013-02-18 12:42:00,33.0,12.0,-100.00,East,100,12.0,21.0,40,-99.99,,,-99.99,,2013-02-18 17:42:00,
2013-02-18 12:52:00,33.0,12.0,-100.00,SE,130,6.0,16.0,40,-99.99,,,-99.99,,2013-02-18 17:52:00,
2013-02-18 13:02:00,33.0,12.0,-100.00,ESE,110,11.0,21.0,40,-99.99,,,-99.99,,2013-02-18 18:02:00,
2013-02-18 13:12:00,33.0,12.0,-100.00,East,95,8.0,16.0,40,-99.99,,,-99.99,,2013-02-18 18:12:00,
2013-02-18 13:23:00,35.0,13.0,-100.00,ESE,110,7.0,19.0,40,-99.99,,,-99.99,,2013-02-18 18:23:00,
2013-02-18 13:33:00,35.0,14.0,-100.00,ESE,120,9.0,17.0,40,-99.99,,,-99.99,,2013-02-18 18:33:00,
2013-02-18 13:42:00,35.0,14.0,-100.00,East,100,9.0,14.0,40,-99.99,,,-99.99,,2013-02-18 18:42:00,
2013-02-18 13:52:00,35.0,14.0,-100.00,East,85,11.0,17.0,41,-99.99,,,-99.99,,2013-02-18 18:52:00,
2013-02-18 14:03:00,35.0,14.0,-100.00,ESE,105,12.0,20.0,41,-99.99,,,-99.99,,2013-02-18 19:03:00,
2013-02-18 14:12:00,36.0,15.0,-100.00,East,90,7.0,16.0,41,-99.99,,,-99.99,,2013-02-18 19:12:00,
2013-02-18 14:22:00,36.0,15.0,-100.00,East,100,10.0,14.0,41,-99.99,,,-99.99,,2013-02-18 19:22:00,
2013-02-18 14:33:00,36.0,15.0,-100.00,East,100,10.0,14.0,41,-99.99,,,-99.99,,2013-02-18 19:33:00,
2013-02-18 14:42:00,37.0,16.0,-100.00,East,95,5.0,16.0,41,-99.99,,,-99.99,,2013-02-18 19:42:00,
2013-02-18 14:52:00,38.0,16.0,-100.00,East,95,11.0,17.0,40,-99.99,,,-99.99,,2013-02-18 19:52:00,
2013-02-18 15:02:00,39.0,17.0,-100.00,ESE,110,6.0,20.0,40,-99.99,,,-99.99,,2013-02-18 20:02:00,
2013-02-18 15:13:00,38.0,17.0,-100.00,ESE,115,9.0,16.0,40,-99.99,,,-99.99,,2013-02-18 20:13:00,
2013-02-18 15:23:00,39.0,17.0,-100.00,SE,130,10.0,19.0,40,-99.99,,,-99.99,,2013-02-18 20:23:00,
2013-02-18 15:33:00,40.0,18.0,-100.00,ESE,110,5.0,16.0,40,-99.99,,,-99.99,,2013-02-18 20:33:00,
2013-02-18 15:42:00,40.0,18.0,-100.00,ESE,110,5.0,16.0,40,-99.99,,,-99.99,,2013-02-18 20:42:00,
2013-02-18 15:52:00,40.0,19.0,-100.00,SE,125,6.0,16.0,40,-99.99,,,-99.99,,2013-02-18 20:52:00,
2013-02-18 16:03:00,40.0,18.0,-100.00,ESE,120,7.0,17.0,40,-99.99,,,-99.99,,2013-02-18 21:03:00,
2013-02-18 16:12:00,40.0,18.0,-100.00,ESE,120,7.0,17.0,40,-99.99,,,-99.99,,2013-02-18 21:12:00,
2013-02-18 16:22:00,41.0,19.0,-100.00,ESE,120,6.0,13.0,40,-99.99,,,-99.99,,2013-02-18 21:22:00,
2013-02-18 16:33:00,41.0,19.0,-100.00,ESE,110,4.0,13.0,40,-99.99,,,-99.99,,2013-02-18 21:33:00,
2013-02-18 16:42:00,41.0,19.0,-100.00,East,100,9.0,15.0,40,-99.99,,,-99.99,,2013-02-18 21:42:00,
2013-02-18 16:53:00,41.0,19.0,-100.00,ESE,110,7.0,17.0,41,-99.99,,,-99.99,,2013-02-18 21:53:00,
2013-02-18 17:03:00,41.0,20.0,-100.00,ESE,105,10.0,15.0,41,-99.99,,,-99.99,,2013-02-18 22:03:00,
2013-02-18 17:12:00,41.0,20.0,-100.00,ESE,120,10.0,17.0,42,-99.99,,,-99.99,,2013-02-18 22:12:00,
2013-02-18 17:22:00,41.0,20.0,-100.00,SE,125,7.0,14.0,42,-99.99,,,-99.99,,2013-02-18 22:22:00,
2013-02-18 17:33:00,41.0,20.0,-100.00,ESE,110,7.0,12.0,42,-99.99,,,-99.99,,2013-02-18 22:33:00,
2013-02-18 17:43:00,41.0,20.0,-100.00,ESE,110,4.0,11.0,42,-99.99,,,-99.99,,2013-02-18 22:43:00,
2013-02-18 17:52:00,41.0,20.0,-100.00,SE,125,6.0,12.0,43,-99.99,,,-99.99,,2013-02-18 22:52:00,
2013-02-18 18:03:00,40.0,20.0,-100.00,ESE,105,6.0,11.0,43,-99.99,,,-99.99,,2013-02-18 23:03:00,
2013-02-18 18:12:00,40.0,20.0,-100.00,ESE,105,7.0,12.0,44,-99.99,,,-99.99,,2013-02-18 23:12:00,
2013-02-18 18:23:00,40.0,20.0,-100.00,ESE,110,4.0,10.0,44,-99.99,,,-99.99,,2013-02-18 23:23:00,
2013-02-18 18:33:00,40.0,21.0,-100.00,East,100,4.0,11.0,45,-99.99,,,-99.99,,2013-02-18 23:33:00,
2013-02-18 18:43:00,40.0,21.0,-100.00,ESE,110,4.0,12.0,45,-99.99,,,-99.99,,2013-02-18 23:43:00,
2013-02-18 18:52:00,40.0,21.0,-100.00,ESE,120,6.0,11.0,46,-99.99,,,-99.99,,2013-02-18 23:52:00,
2013-02-18 19:03:00,40.0,21.0,-100.00,East,90,4.0,12.0,46,-99.99,,,-99.99,,2013-02-19 00:03:00,
2013-02-18 19:12:00,40.0,21.0,-100.00,East,100,6.0,11.0,46,-99.99,,,-99.99,,2013-02-19 00:12:00,
2013-02-18 19:22:00,40.0,22.0,-100.00,East,80,5.0,9.0,47,-99.99,,,-99.99,,2013-02-19 00:22:00,
2013-02-18 19:34:00,40.0,22.0,-100.00,East,95,4.0,11.0,47,-99.99,,,-99.99,,2013-02-19 00:34:00,
2013-02-18 19:43:00,40.0,22.0,-100.00,ESE,105,3.0,10.0,48,-99.99,,,-99.99,,2013-02-19 00:43:00,
2013-02-18 19:53:00,40.0,22.0,-100.00,ESE,110,2.0,9.0,48,-99.99,,,-99.99,,2013-02-19 00:53:00,
2013-02-18 20:03:00,40.0,22.0,-100.00,ESE,115,4.0,9.0,48,-99.99,,,-99.99,,2013-02-19 01:03:00,
2013-02-18 20:14:00,40.0,22.0,-100.00,East,95,6.0,9.0,48,-99.99,,,-99.99,,2013-02-19 01:14:00,
2013-02-18 20:24:00,40.0,22.0,-100.00,East,90,5.0,9.0,48,-99.99,,,-99.99,,2013-02-19 01:24:00,
2013-02-18 20:34:00,40.0,23.0,-100.00,ESE,110,3.0,8.0,49,-99.99,,,-99.99,,2013-02-19 01:34:00,
2013-02-18 20:44:00,40.0,23.0,-100.00,ESE,110,3.0,8.0,49,-99.99,,,-99.99,,2013-02-19 01:44:00,
2013-02-18 20:54:00,40.0,23.0,-100.00,East,85,4.0,9.0,49,-99.99,,,-99.99,,2013-02-19 01:54:00,
2013-02-18 21:03:00,40.0,23.0,-100.00,East,100,4.0,8.0,49,-99.99,,,-99.99,,2013-02-19 02:03:00,
2013-02-18 21:14:00,41.0,23.0,-100.00,East,95,4.0,9.0,49,-99.99,,,-99.99,,2013-02-19 02:14:00,
2013-02-18 21:23:00,41.0,24.0,-100.00,ESE,105,4.0,9.0,50,-99.99,,,-99.99,,2013-02-19 02:23:00,
2013-02-18 21:34:00,41.0,24.0,-100.00,East,100,4.0,9.0,50,-99.99,,,-99.99,,2013-02-19 02:34:00,
2013-02-18 21:43:00,41.0,24.0,-100.00,ESE,115,4.0,11.0,50,-99.99,,,-99.99,,2013-02-19 02:43:00,
2013-02-18 21:53:00,42.0,25.0,-100.00,ESE,110,5.0,9.0,50,-99.99,,,-99.99,,2013-02-19 02:53:00,
2013-02-18 22:06:00,42.0,25.0,-100.00,East,100,4.0,8.0,50,-99.99,,,-99.99,,2013-02-19 03:06:00,
2013-02-18 22:14:00,42.0,25.0,-100.00,SE,125,2.0,7.0,50,-99.99,,,-99.99,,2013-02-19 03:14:00,
2013-02-18 22:24:00,42.0,26.0,-100.00,ESE,110,3.0,9.0,50,-99.99,,,-99.99,,2013-02-19 03:24:00,
2013-02-18 22:34:00,43.0,26.0,-100.00,ESE,115,4.0,10.0,50,-99.99,,,-99.99,,2013-02-19 03:34:00,
2013-02-18 22:44:00,44.0,26.0,-100.00,ESE,120,6.0,10.0,50,-99.99,,,-99.99,,2013-02-19 03:44:00,
2013-02-18 22:53:00,44.0,27.0,-100.00,East,100,5.0,12.0,50,-99.99,,,-99.99,,2013-02-19 03:53:00,
2013-02-18 23:03:00,44.0,27.0,-100.00,ESE,110,4.0,12.0,49,-99.99,,,-99.99,,2013-02-19 04:03:00,
2013-02-18 23:14:00,45.0,27.0,-100.00,ESE,105,7.0,12.0,49,-99.99,,,-99.99,,2013-02-19 04:14:00,
2013-02-18 23:23:00,45.0,27.0,-100.00,ESE,115,6.0,14.0,49,-99.99,,,-99.99,,2013-02-19 04:23:00,
2013-02-18 23:34:00,45.0,28.0,-100.00,ESE,105,8.0,14.0,49,-99.99,,,-99.99,,2013-02-19 04:34:00,
2013-02-18 23:43:00,45.0,28.0,-100.00,SE,125,6.0,15.0,49,-99.99,,,-99.99,,2013-02-19 04:43:00,
2013-02-18 23:53:00,46.0,28.0,-100.00,ESE,110,6.0,12.0,48,-99.99,,,-99.99,,2013-02-19 04:53:00,